^^
Datos históricos de la estación: Murcia-Puente Tocinos
Diario Informe para Octubre 27, 2019 Unidades:  Métrico    Ingés   Ambas
Diario Semanal Mensual Anual
  Máxima: Mínima: Promedio:
Temperatura: 22.5 °C 14.2 °C 17.6 °C
Punto de rocio: 15.7 °C 12.7 °C 14.4 °C
Humedad: 91% 63% 82%
Velocidad viento: 12.2km/h 0km/h 4.4km/h
Racha viento: 24.1km/h - -
Viento- - SSE
Presión: 1021.4 hPa 1018.1 hPa -
Precipitación: 0.0 mm    
 
 
Tabla de datos para Octubre 27, 2019
Hora Temperatura Punto de rocio Presión Viento Velocidad viento Racha viento Humedad Intensidad lluvia(por hora) Nubes
00:04 16.6 °C 14.9 °C 1020.3 hPa ESE 1.8 km/h 4.8 km/h 90% 0.0 mm
00:09 16.6 °C 14.9 °C 1020.3 hPa ESE 2.2 km/h 4.8 km/h 90% 0.0 mm
00:14 16.5 °C 14.8 °C 1020.3 hPa ESE 0.6 km/h 6.9 km/h 90% 0.0 mm
00:19 16.4 °C 14.6 °C 1020.3 hPa Calm   8 km/h 89.3% 0.0 mm
00:24 16.4 °C 14.5 °C 1020.3 hPa SSO 2.4 km/h 9.5 km/h 88.6% 0.0 mm
00:29 16.4 °C 14.4 °C 1020.3 hPa Sur 3.2 km/h 11.1 km/h 87.4% 0.0 mm
00:34 16.5 °C 14.3 °C 1020.3 hPa SSE 5.1 km/h 11.3 km/h 86.8% 0.0 mm
00:39 16.5 °C 14.2 °C 1020.5 hPa SE 5.8 km/h 8 km/h 86% 0.0 mm
00:44 16.4 °C 14.1 °C 1020.5 hPa SSE 4.4 km/h 8 km/h 86% 0.0 mm
00:49 16.3 °C 14 °C 1020.5 hPa SSE 3.9 km/h 8.4 km/h 86% 0.0 mm
00:54 16.3 °C 14 °C 1020.5 hPa SSE 4.4 km/h 8.4 km/h 86.6% 0.0 mm
00:59 16.2 °C 14.1 °C 1020.4 hPa SE 4.7 km/h 8 km/h 87% 0.0 mm
01:04 16.1 °C 14 °C 1020.4 hPa SE 4.7 km/h 8 km/h 87% 0.0 mm
01:09 16.1 °C 13.9 °C 1020.4 hPa SSE 4.6 km/h 8 km/h 87% 0.0 mm
01:14 15.9 °C 13.8 °C 1020.3 hPa SSE 4.1 km/h 8 km/h 87% 0.0 mm
01:19 15.9 °C 13.8 °C 1020.3 hPa SSE 3.9 km/h 5.6 km/h 87.6% 0.0 mm
01:24 15.9 °C 13.9 °C 1020.4 hPa SSE 2.7 km/h 5.8 km/h 88% 0.0 mm
01:29 15.9 °C 13.9 °C 1020.4 hPa SSE 2.2 km/h 6.4 km/h 88% 0.0 mm
01:34 15.9 °C 13.9 °C 1020.4 hPa SSE 0.6 km/h 3.7 km/h 88% 0.0 mm
01:39 15.8 °C 13.8 °C 1020.4 hPa Calm   3.2 km/h 88% 0.0 mm
01:44 15.8 °C 13.8 °C 1020.4 hPa Calm   4.7 km/h 88% 0.0 mm
01:49 15.7 °C 13.7 °C 1020.4 hPa Calm   4.8 km/h 88% 0.0 mm
01:54 15.7 °C 13.7 °C 1020.5 hPa SSE 1.6 km/h 3.9 km/h 88.2% 0.0 mm
01:59 15.6 °C 13.7 °C 1020.5 hPa SSE 2.2 km/h 4.7 km/h 89% 0.0 mm
02:04 15.5 °C 13.6 °C 1020.5 hPa SE 2.2 km/h 5.6 km/h 89% 0.0 mm
02:09 15.4 °C 13.6 °C 1020.5 hPa NE 2.2 km/h 4.8 km/h 89% 0.0 mm
02:14 15.3 °C 13.6 °C 1020.5 hPa NE 2.2 km/h 3.2 km/h 89.4% 0.0 mm
02:19 15.3 °C 13.7 °C 1020.5 hPa NE 2.2 km/h 3.7 km/h 90% 0.0 mm
02:24 15.3 °C 13.7 °C 1020.5 hPa NE 0.6 km/h 4.7 km/h 90% 0.0 mm
02:29 15.3 °C 13.7 °C 1020.4 hPa Calm   4.8 km/h 90% 0.0 mm
02:34 15.3 °C 13.7 °C 1020.4 hPa Calm   4.7 km/h 90% 0.0 mm
02:39 15.3 °C 13.6 °C 1020.5 hPa Calm   4.8 km/h 90% 0.0 mm
02:44 15.2 °C 13.6 °C 1020.5 hPa ENE 1.7 km/h 5.6 km/h 90% 0.0 mm
02:49 15.2 °C 13.6 °C 1020.5 hPa Este 2.2 km/h 5.6 km/h 90% 0.0 mm
02:54 15.1 °C 13.5 °C 1020.5 hPa SE 3 km/h 7.4 km/h 90% 0.0 mm
02:59 15 °C 13.4 °C 1020.4 hPa SE 3.2 km/h 8 km/h 90% 0.0 mm
02:04 14.9 °C 13.3 °C 1020.4 hPa SSE 3.7 km/h 8 km/h 90% 0.0 mm
02:09 14.9 °C 13.3 °C 1020.5 hPa SSE 3.9 km/h 8 km/h 90% 0.0 mm
02:14 14.9 °C 13.3 °C 1020.5 hPa SSE 2.7 km/h 3.2 km/h 90% 0.0 mm
02:19 14.9 °C 13.3 °C 1020.5 hPa SSE 2.2 km/h   90% 0.0 mm
02:24 14.9 °C 13.3 °C 1020.5 hPa SSE 0.6 km/h 8.4 km/h 90% 0.0 mm
02:29 14.9 °C 13.3 °C 1020.4 hPa Calm   8 km/h 90% 0.0 mm
02:34 15 °C 13.4 °C 1020.4 hPa SSO 3.4 km/h 8.4 km/h 90% 0.0 mm
02:39 15 °C 13.4 °C 1020.4 hPa SO 4.7 km/h 8 km/h 90% 0.0 mm
02:44 15 °C 13.4 °C 1020.3 hPa SSO 4.7 km/h 8 km/h 90% 0.0 mm
02:49 15 °C 13.4 °C 1020.3 hPa SO 4.7 km/h 4.8 km/h 90% 0.0 mm
02:54 15 °C 13.3 °C 1020.3 hPa SO 2.8 km/h 4.8 km/h 90% 0.0 mm
02:59 14.9 °C 13.3 °C 1020.3 hPa OSO 2.2 km/h 3.9 km/h 90% 0.0 mm
03:04 14.8 °C 13.1 °C 1020.3 hPa OSO 0.5 km/h 3.2 km/h 89.7% 0.0 mm
03:09 14.7 °C 13.1 °C 1020.3 hPa Calm   2.3 km/h 90% 0.0 mm
03:14 14.7 °C 13.2 °C 1020.2 hPa Calm   1.6 km/h 90.6% 0.0 mm
03:19 14.8 °C 13.3 °C 1020.2 hPa Calm   4.7 km/h 91% 0.0 mm
03:24 14.8 °C 13.3 °C 1020.2 hPa Calm   5.6 km/h 91% 0.0 mm
03:29 14.8 °C 13.3 °C 1020.2 hPa Calm   7.4 km/h 91% 0.0 mm
03:34 14.8 °C 13.4 °C 1020.2 hPa SSE 2.3 km/h 8 km/h 91% 0.0 mm
03:39 14.9 °C 13.4 °C 1020.2 hPa Sur 3.2 km/h 8 km/h 91% 0.0 mm
03:44 15 °C 13.5 °C 1020.0 hPa Sur 3.7 km/h 8 km/h 91% 0.0 mm
03:49 15 °C 13.6 °C 1020.0 hPa Sur 3.9 km/h 6.9 km/h 91% 0.0 mm
03:54 15.1 °C 13.7 °C 1020.0 hPa Sur 3.4 km/h 8 km/h 91% 0.0 mm
03:59 15.1 °C 13.7 °C 1019.8 hPa Sur 3.2 km/h 8 km/h 91% 0.0 mm
04:04 15.1 °C 13.7 °C 1019.8 hPa Sur 4.3 km/h 8 km/h 91% 0.0 mm
04:09 15.1 °C 13.7 °C 1019.8 hPa Sur 4.7 km/h 8 km/h 91% 0.0 mm
04:14 15.1 °C 13.7 °C 1019.7 hPa SSO 4.1 km/h 6.4 km/h 91% 0.0 mm
04:19 15.1 °C 13.7 °C 1019.7 hPa SSO 3.9 km/h 4.8 km/h 91% 0.0 mm
04:24 15.1 °C 13.5 °C 1019.7 hPa SSO 2.7 km/h 3.9 km/h 90.3% 0.0 mm
04:29 15.1 °C 13.4 °C 1019.6 hPa SSO 2.2 km/h 5.6 km/h 90% 0.0 mm
04:34 15 °C 13.4 °C 1019.6 hPa SSO 2.2 km/h 5.8 km/h 90% 0.0 mm
04:39 14.9 °C 13.3 °C 1019.7 hPa SSO 2.2 km/h 6.4 km/h 90% 0.0 mm
04:44 14.9 °C 13.3 °C 1019.7 hPa SSO 2.7 km/h 4.8 km/h 90% 0.0 mm
04:49 14.9 °C 13.3 °C 1019.7 hPa SSO 2.9 km/h 3.9 km/h 90% 0.0 mm
04:54 14.9 °C 13.3 °C 1019.7 hPa SSO 0.8 km/h 5.8 km/h 90% 0.0 mm
04:59 14.9 °C 13.3 °C 1019.7 hPa Calm   6.9 km/h 90% 0.0 mm
05:04 14.9 °C 13.3 °C 1019.7 hPa SO 3 km/h 8 km/h 90% 0.0 mm
05:09 14.8 °C 13.2 °C 1019.8 hPa SO 3.9 km/h 8 km/h 90% 0.0 mm
05:14 14.8 °C 13.2 °C 1019.8 hPa SO 4.4 km/h 8 km/h 90% 0.0 mm
05:19 14.8 °C 13.2 °C 1019.8 hPa SO 4.7 km/h 8 km/h 90% 0.0 mm
05:24 14.7 °C 13.1 °C 1019.8 hPa OSO 4.1 km/h 8.4 km/h 90% 0.0 mm
05:29 14.7 °C 13.1 °C 1019.8 hPa OSO 3.9 km/h 8 km/h 90% 0.0 mm
05:34 14.7 °C 13 °C 1019.8 hPa OSO 4.4 km/h 8 km/h 90% 0.0 mm
05:39 14.6 °C 13 °C 1019.9 hPa OSO 4.7 km/h 8.4 km/h 90% 0.0 mm
05:44 14.6 °C 13 °C 1019.9 hPa SO 4.7 km/h 9.3 km/h 90% 0.0 mm
05:49 14.6 °C 13 °C 1019.9 hPa SO 4.7 km/h 9.7 km/h 90% 0.0 mm
05:54 14.6 °C 13.1 °C 1020.0 hPa SO 4.9 km/h 9.7 km/h 90.9% 0.0 mm
05:59 14.6 °C 13.1 °C 1020.0 hPa OSO 5 km/h 8 km/h 91% 0.0 mm
06:04 14.6 °C 13.1 °C 1020.0 hPa OSO 4.7 km/h 8 km/h 91% 0.0 mm
06:09 14.5 °C 13.1 °C 1020.2 hPa SO 4.7 km/h 8.4 km/h 91% 0.0 mm
06:14 14.6 °C 13.1 °C 1020.2 hPa SSO 4.7 km/h 8.4 km/h 91% 0.0 mm
06:19 14.6 °C 13.2 °C 1020.2 hPa SSO 4.7 km/h 8.4 km/h 91% 0.0 mm
06:24 14.6 °C 13.2 °C 1020.2 hPa SSO 5.5 km/h 8.7 km/h 91% 0.0 mm
06:29 14.7 °C 13.2 °C 1020.2 hPa Sur 5.8 km/h 9.7 km/h 91% 0.0 mm
06:34 14.7 °C 13.2 °C 1020.2 hPa SSE 5.8 km/h 9.7 km/h 90.6% 0.0 mm
06:39 14.7 °C 13 °C 1020.2 hPa SSE 5.8 km/h 9.7 km/h 90% 0.0 mm
06:44 14.6 °C 13 °C 1020.1 hPa Sur 5.2 km/h 8 km/h 90% 0.0 mm
06:49 14.6 °C 13 °C 1020.1 hPa SSE 5 km/h 8 km/h 90% 0.0 mm
06:54 14.5 °C 12.9 °C 1020.1 hPa SSE 4.7 km/h 8 km/h 90% 0.0 mm
06:59 14.4 °C 12.8 °C 1020.1 hPa SE 4.7 km/h 8 km/h 90% 0.0 mm
07:04 14.3 °C 12.7 °C 1020.1 hPa SSE 4.7 km/h 8 km/h 90.3% 0.0 mm
07:09 14.2 °C 12.8 °C 1020.1 hPa Sur 4.6 km/h 8 km/h 91% 0.0 mm
07:14 14.2 °C 12.8 °C 1020.1 hPa Sur 4.1 km/h 8 km/h 91% 0.0 mm
07:19 14.2 °C 12.8 °C 1020.1 hPa SO 3.9 km/h 8 km/h 91% 0.0 mm
07:24 14.2 °C 12.8 °C 1020.3 hPa SO 3.9 km/h 8 km/h 91% 0.0 mm
07:29 14.2 °C 12.8 °C 1020.3 hPa OSO 3.9 km/h 8 km/h 91% 0.0 mm
07:34 14.2 °C 12.8 °C 1020.3 hPa OSO 3.4 km/h 6.4 km/h 91% 0.0 mm
07:39 14.2 °C 12.8 °C 1020.4 hPa OSO 3.2 km/h 6.4 km/h 91% 0.0 mm
07:44 14.2 °C 12.8 °C 1020.4 hPa OSO 3.2 km/h 9.5 km/h 91% 0.0 mm
07:49 14.3 °C 12.8 °C 1020.4 hPa OSO 3.2 km/h 9.7 km/h 91% 0.0 mm
07:54 14.3 °C 12.8 °C 1020.8 hPa OSO 3.7 km/h 8.7 km/h 91% 0.0 mm
07:59 14.2 °C 12.8 °C 1020.8 hPa Oeste 3.9 km/h 11.1 km/h 91% 0.0 mm
08:04 14.2 °C 12.8 °C 1020.8 hPa OSO 5.4 km/h 11.3 km/h 91% 0.0 mm
08:09 14.2 °C 12.8 °C 1020.8 hPa SO 5.8 km/h 8.4 km/h 91% 0.0 mm
08:14 14.2 °C 12.8 °C 1020.8 hPa OSO 5.2 km/h 9.3 km/h 91% 0.0 mm
08:19 14.3 °C 12.8 °C 1020.8 hPa OSO 5 km/h 9.7 km/h 91% 0.0 mm
08:24 14.3 °C 12.8 °C 1020.9 hPa OSO 4.8 km/h 8 km/h 91% 0.0 mm
08:29 14.4 °C 12.9 °C 1020.9 hPa OSO 4.7 km/h 8 km/h 91% 0.0 mm
08:34 14.4 °C 13 °C 1020.9 hPa SSE 2.9 km/h 8.4 km/h 91% 0.0 mm
08:39 14.5 °C 13 °C 1020.9 hPa Sur 2.2 km/h 8 km/h 91% 0.0 mm
08:44 14.5 °C 13.1 °C 1020.9 hPa SSE 3.4 km/h 8 km/h 91% 0.0 mm
08:49 14.5 °C 13.1 °C 1020.9 hPa Sur 3.9 km/h 8.4 km/h 91% 0.0 mm
08:54 14.6 °C 13.1 °C 1021.1 hPa Sur 4.5 km/h 8.4 km/h 91% 0.0 mm
08:59 14.6 °C 13.2 °C 1021.1 hPa Sur 4.7 km/h 10 km/h 91% 0.0 mm
09:04 14.7 °C 13.2 °C 1021.1 hPa Sur 5.5 km/h 10 km/h 91% 0.0 mm
09:09 14.7 °C 13.1 °C 1021.1 hPa SSO 5.8 km/h 11.1 km/h 90.3% 0.0 mm
09:14 14.8 °C 13.2 °C 1021.1 hPa SO 6.6 km/h 11.9 km/h 90% 0.0 mm
09:19 15 °C 13.4 °C 1021.1 hPa SO 6.9 km/h 11.3 km/h 90% 0.0 mm
09:24 15.2 °C 13.4 °C 1021.2 hPa SSO 6.6 km/h 9.7 km/h 89% 0.0 mm
09:29 15.4 °C 13.5 °C 1021.2 hPa SO 6.5 km/h 9.7 km/h 88.3% 0.0 mm
09:34 15.6 °C 13.6 °C 1021.2 hPa OSO 6 km/h 9.7 km/h 87.8% 0.0 mm
09:39 15.7 °C 13.6 °C 1021.2 hPa Oeste 5.8 km/h 9.7 km/h 87% 0.0 mm
09:44 15.8 °C 13.7 °C 1021.2 hPa OSO 5.2 km/h 11.1 km/h 87% 0.0 mm
09:49 16 °C 13.9 °C 1021.2 hPa SO 5 km/h 11.3 km/h 87% 0.0 mm
09:54 16.2 °C 13.8 °C 1021.3 hPa OSO 5.6 km/h 10.3 km/h 86.2% 0.0 mm
09:59 16.3 °C 13.9 °C 1021.3 hPa SO 5.8 km/h 11.9 km/h 85.9% 0.0 mm
10:04 16.4 °C 13.9 °C 1021.3 hPa SO 6.3 km/h 11.3 km/h 85% 0.0 mm
10:09 16.6 °C 14 °C 1021.3 hPa SO 6.5 km/h 11.3 km/h 85% 0.0 mm
10:14 16.7 °C 14.1 °C 1021.3 hPa SSO 6.5 km/h 11.9 km/h 85% 0.0 mm
10:19 16.8 °C 14.3 °C 1021.3 hPa SO 6.5 km/h 13 km/h 85% 0.0 mm
10:24 16.9 °C 14.3 °C 1021.4 hPa Sur 7.3 km/h 12.9 km/h 84.9% 0.0 mm
10:29 17.1 °C 14.3 °C 1021.4 hPa SO 7.6 km/h 11.1 km/h 83.6% 0.0 mm
10:34 17.1 °C 14.2 °C 1021.4 hPa Oeste 6.3 km/h 11.3 km/h 83% 0.0 mm
10:39 17.2 °C 14.3 °C 1021.4 hPa SSO 5.8 km/h 9.7 km/h 83% 0.0 mm
10:44 17.2 °C 14.3 °C 1021.4 hPa SO 5.2 km/h 9.7 km/h 83% 0.0 mm
10:49 17.3 °C 14.3 °C 1021.4 hPa SSO 5 km/h 9.5 km/h 82.7% 0.0 mm
10:54 17.4 °C 14.2 °C 1021.4 hPa SO 5 km/h 9.7 km/h 81.6% 0.0 mm
10:59 17.5 °C 14.3 °C 1021.3 hPa Sur 5 km/h 11.1 km/h 81.5% 0.0 mm
11:04 17.8 °C 14.4 °C 1021.3 hPa SSO 4.7 km/h 11.3 km/h 80.3% 0.0 mm
11:09 18.1 °C 14.5 °C 1021.3 hPa SSO 4.6 km/h 11.3 km/h 79.6% 0.0 mm
11:14 18.2 °C 14.5 °C 1021.1 hPa SSO 4.7 km/h 8 km/h 79.3% 0.0 mm
11:19 18.3 °C 14.5 °C 1021.1 hPa SO 4.6 km/h 8 km/h 78.6% 0.0 mm
11:24 18.5 °C 14.6 °C 1021.1 hPa Sur 3.6 km/h 9.5 km/h 78.2% 0.0 mm
11:29 18.6 °C 14.5 °C 1021.1 hPa ONO 3.2 km/h 9.7 km/h 77% 0.0 mm
11:34 18.8 °C 14.6 °C 1021.1 hPa SO 3.7 km/h 9.5 km/h 76.6% 0.0 mm
11:39 19 °C 14.6 °C 1021.1 hPa SO 3.9 km/h 9.7 km/h 75.5% 0.0 mm
11:44 19.1 °C 14.6 °C 1021.0 hPa Oeste 5.3 km/h 9.5 km/h 75% 0.0 mm
11:49 19.2 °C 14.7 °C 1021.0 hPa OSO 5.8 km/h 9.7 km/h 74.9% 0.0 mm
11:54 19.4 °C 14.7 °C 1021.0 hPa OSO 3.9 km/h 10 km/h 74% 0.0 mm
11:59 19.4 °C 14.7 °C 1020.9 hPa OSO 3.2 km/h 9.7 km/h 74% 0.0 mm
12:04 19.6 °C 14.8 °C 1020.9 hPa Oeste 4.4 km/h 8 km/h 73.7% 0.0 mm
12:09 19.8 °C 14.7 °C 1020.9 hPa Oeste 4.6 km/h 8.4 km/h 72.3% 0.0 mm
12:14 19.8 °C 14.8 °C 1020.8 hPa ONO 4.7 km/h 8 km/h 72.9% 0.0 mm
12:19 20 °C 15 °C 1020.8 hPa NE 4.7 km/h 8 km/h 73% 0.0 mm
12:24 20.4 °C 15.2 °C 1020.8 hPa ENE 3.3 km/h 8.4 km/h 72.1% 0.0 mm
12:29 20.7 °C 15.2 °C 1020.5 hPa NNE 2.9 km/h 8 km/h 70.7% 0.0 mm
12:34 20.8 °C 15.1 °C 1020.5 hPa Oeste 4.2 km/h 8.4 km/h 70% 0.0 mm
12:39 20.8 °C 15 °C 1020.5 hPa OSO 4.7 km/h 9.5 km/h 69.7% 0.0 mm
12:44 20.8 °C 15.1 °C 1020.5 hPa Oeste 4.1 km/h 11.1 km/h 70% 0.0 mm
12:49 20.7 °C 15.1 °C 1020.5 hPa OSO 3.9 km/h 11.3 km/h 70% 0.0 mm
12:54 20.8 °C 15.1 °C 1020.5 hPa SSE 4.7 km/h 9.7 km/h 70% 0.0 mm
12:59 20.9 °C 15.1 °C 1020.1 hPa Oeste 5 km/h 9.7 km/h 69.4% 0.0 mm
13:04 20.9 °C 15.1 °C 1020.1 hPa NO 4.1 km/h 7.6 km/h 69% 0.0 mm
13:09 21 °C 15.1 °C 1020.1 hPa NNO 3.9 km/h 8 km/h 69% 0.0 mm
13:14 21.2 °C 15.3 °C 1020.0 hPa NNE 4.5 km/h 8 km/h 68.8% 0.0 mm
13:19 21.5 °C 15.3 °C 1020.0 hPa ESE 4.7 km/h 9.5 km/h 68% 0.0 mm
13:24 21.6 °C 15.3 °C 1020.0 hPa SSE 4.7 km/h 11.1 km/h 67.2% 0.0 mm
13:29 21.6 °C 15.4 °C 1019.8 hPa ESE 4.7 km/h 13 km/h 68% 0.0 mm
13:34 21.7 °C 15.5 °C 1019.8 hPa Este 5.5 km/h 12.9 km/h 68% 0.0 mm
13:39 21.7 °C 15.5 °C 1019.8 hPa Sur 5.8 km/h 9.7 km/h 67.8% 0.0 mm
13:44 21.8 °C 15.5 °C 1019.6 hPa ONO 4.4 km/h 8 km/h 67.2% 0.0 mm
13:49 22.1 °C 15.6 °C 1019.6 hPa NO 3.9 km/h 6.4 km/h 66.5% 0.0 mm
13:54 22.3 °C 15.6 °C 1019.6 hPa SSO 3.1 km/h 9.5 km/h 65.7% 0.0 mm
13:59 22.4 °C 15.4 °C 1019.4 hPa Sur 2.9 km/h 11.1 km/h 64.6% 0.0 mm
14:04 22.3 °C 15.3 °C 1019.4 hPa ESE 4.5 km/h 11.3 km/h 64.1% 0.0 mm
14:09 22.2 °C 15.3 °C 1019.4 hPa NE 5 km/h 11.1 km/h 65.1% 0.0 mm
14:14 21.9 °C 15.2 °C 1019.1 hPa NE 5.6 km/h 11.3 km/h 65.7% 0.0 mm
14:19 21.8 °C 15.2 °C 1019.1 hPa Este 5.8 km/h 11.3 km/h 66% 0.0 mm
14:24 21.8 °C 15.3 °C 1019.1 hPa Este 5.2 km/h 9.3 km/h 66.1% 0.0 mm
14:29 21.9 °C 15.3 °C 1019.0 hPa North 5 km/h 9.7 km/h 66% 0.0 mm
14:34 22.1 °C 15.4 °C 1019.0 hPa NE 4.8 km/h 11.1 km/h 65.8% 0.0 mm
14:39 22.1 °C 15.2 °C 1019.0 hPa NE 4.7 km/h 11.9 km/h 65% 0.0 mm
14:44 21.9 °C 15.2 °C 1018.8 hPa NNE 5.5 km/h 11.3 km/h 65.8% 0.0 mm
14:49 21.9 °C 15.4 °C 1018.8 hPa NNE 5.8 km/h 11.3 km/h 66.2% 0.0 mm
14:54 22.1 °C 15.4 °C 1018.8 hPa ENE 6.3 km/h 11.3 km/h 66% 0.0 mm
14:59 22.2 °C 15.5 °C 1018.6 hPa Este 6.5 km/h 14.8 km/h 66% 0.0 mm
15:04 22.2 °C 15.4 °C 1018.6 hPa Este 6.5 km/h 14.5 km/h 65.2% 0.0 mm
15:09 22.3 °C 15.2 °C 1018.6 hPa ENE 6.5 km/h 12.9 km/h 64.3% 0.0 mm
15:14 22.4 °C 15.3 °C 1018.4 hPa ENE 6.8 km/h 13.7 km/h 64.1% 0.0 mm
15:19 22.5 °C 15.5 °C 1018.4 hPa NE 6.9 km/h 14.5 km/h 64.7% 0.0 mm
15:24 22.4 °C 15.4 °C 1018.4 hPa NE 8 km/h 17.2 km/h 64.5% 0.0 mm
15:29 22.4 °C 15.5 °C 1018.4 hPa NE 8.4 km/h 17.7 km/h 65% 0.0 mm
15:34 22.3 °C 15.5 °C 1018.4 hPa NE 8.6 km/h 16.1 km/h 65.1% 0.0 mm
15:39 22.4 °C 15.5 °C 1018.4 hPa NE 8.7 km/h 11.9 km/h 65% 0.0 mm
15:44 22.5 °C 15.3 °C 1018.3 hPa NNE 7.4 km/h 11.3 km/h 64% 0.0 mm
15:49 22.5 °C 15.4 °C 1018.3 hPa NE 6.9 km/h 13 km/h 64% 0.0 mm
15:54 22.5 °C 15.4 °C 1018.3 hPa NE 6.6 km/h 14.8 km/h 64% 0.0 mm
15:59 22.4 °C 15.4 °C 1018.3 hPa ENE 6.5 km/h 18.3 km/h 64.4% 0.0 mm
16:04 22.4 °C 15.3 °C 1018.3 hPa NE 7.9 km/h 19.3 km/h 64% 0.0 mm
16:09 22.4 °C 15.4 °C 1018.3 hPa NNE 8.4 km/h 19.3 km/h 64.4% 0.0 mm
16:14 22.4 °C 15.5 °C 1018.2 hPa ENE 9.2 km/h 17.7 km/h 64.9% 0.0 mm
16:19 22.3 °C 15.4 °C 1018.2 hPa ENE 9.5 km/h 19 km/h 64.8% 0.0 mm
16:24 22.3 °C 15.2 °C 1018.2 hPa ESE 9.5 km/h 19.3 km/h 63.8% 0.0 mm
16:29 22.3 °C 15 °C 1018.2 hPa ESE 9.5 km/h 16.1 km/h 63% 0.0 mm
16:34 22.3 °C 15 °C 1018.2 hPa ESE 9.9 km/h 16.1 km/h 63.2% 0.0 mm
16:39 22.3 °C 15.2 °C 1018.2 hPa ESE 10 km/h 13 km/h 64% 0.0 mm
16:44 22.2 °C 15.1 °C 1018.1 hPa ESE 8.2 km/h 13 km/h 64.1% 0.0 mm
16:49 22.1 °C 15.3 °C 1018.1 hPa ESE 7.6 km/h 13.7 km/h 65.2% 0.0 mm
16:54 22.1 °C 15.5 °C 1018.3 hPa ESE 7.1 km/h 14.8 km/h 66.3% 0.0 mm
16:59 21.9 °C 15.6 °C 1018.3 hPa ESE 6.9 km/h 17.2 km/h 67.2% 0.0 mm
17:04 21.9 °C 15.7 °C 1018.3 hPa ESE 9.6 km/h 17.7 km/h 68% 0.0 mm
17:09 21.9 °C 15.7 °C 1018.3 hPa ESE 10.3 km/h 19 km/h 68% 0.0 mm
17:14 21.8 °C 15.7 °C 1018.2 hPa ESE 10.9 km/h 20.4 km/h 68.1% 0.0 mm
17:19 21.8 °C 15.6 °C 1018.2 hPa ESE 11.1 km/h 22.2 km/h 68.2% 0.0 mm
17:24 21.6 °C 15.7 °C 1018.2 hPa ESE 11.9 km/h 24.1 km/h 69% 0.0 mm
17:29 21.5 °C 15.6 °C 1018.2 hPa ESE 12.2 km/h 24.1 km/h 69.2% 0.0 mm
17:34 21.5 °C 15.7 °C 1018.2 hPa ESE 10.8 km/h 17.2 km/h 69.7% 0.0 mm
17:39 21.4 °C 15.7 °C 1018.3 hPa ESE 10.3 km/h 17.7 km/h 69.9% 0.0 mm
17:44 21.3 °C 15.7 °C 1018.3 hPa ESE 9.7 km/h 14.8 km/h 70% 0.0 mm
17:49 21.3 °C 15.6 °C 1018.3 hPa ESE 9.5 km/h 14.8 km/h 70% 0.0 mm
17:54 21.2 °C 15.6 °C 1018.3 hPa Este 8.9 km/h 16.7 km/h 70.6% 0.0 mm
17:59 21 °C 15.6 °C 1018.3 hPa ESE 8.7 km/h 16.1 km/h 71.4% 0.0 mm
18:04 20.8 °C 15.6 °C 1018.3 hPa Este 9.7 km/h 17.2 km/h 72.3% 0.0 mm
18:09 20.7 °C 15.6 °C 1018.4 hPa ESE 10 km/h 17.7 km/h 73% 0.0 mm
18:14 20.6 °C 15.7 °C 1018.4 hPa ESE 9 km/h 18 km/h 73.9% 0.0 mm
18:19 20.4 °C 15.6 °C 1018.4 hPa ESE 8.7 km/h 19.8 km/h 74% 0.0 mm
18:24 20.3 °C 15.7 °C 1018.4 hPa ESE 9.9 km/h 20.9 km/h 74.8% 0.0 mm
18:29 20.2 °C 15.6 °C 1018.4 hPa ESE 10.3 km/h 22.2 km/h 75.1% 0.0 mm
18:34 20.1 °C 15.7 °C 1018.4 hPa ESE 10.3 km/h 22.5 km/h 76% 0.0 mm
18:39 20 °C 15.7 °C 1018.5 hPa ESE 10.3 km/h 19.3 km/h 76% 0.0 mm
18:44 19.9 °C 15.6 °C 1018.5 hPa ESE 9.7 km/h 14.5 km/h 76% 0.0 mm
18:49 19.8 °C 15.7 °C 1018.5 hPa ESE 9.5 km/h 14.5 km/h 77% 0.0 mm
18:54 19.8 °C 15.7 °C 1018.8 hPa ESE 8.7 km/h 12.9 km/h 77% 0.0 mm
18:59 19.8 °C 15.6 °C 1018.8 hPa ESE 8.4 km/h 12.2 km/h 77% 0.0 mm
19:04 19.7 °C 15.6 °C 1018.8 hPa ESE 7.7 km/h 13.7 km/h 77% 0.0 mm
19:09 19.6 °C 15.6 °C 1019.0 hPa Este 7.6 km/h 14.5 km/h 77.7% 0.0 mm
19:14 19.5 °C 15.5 °C 1019.0 hPa Este 6.7 km/h 11.3 km/h 78% 0.0 mm
19:19 19.4 °C 15.4 °C 1019.0 hPa Este 6.5 km/h 10 km/h 78% 0.0 mm
19:24 19.3 °C 15.5 °C 1019.1 hPa ENE 6.5 km/h 9.7 km/h 78.4% 0.0 mm
19:29 19.2 °C 15.5 °C 1019.1 hPa NE 6.5 km/h 8 km/h 79% 0.0 mm
19:34 19.2 °C 15.4 °C 1019.1 hPa NE 5.1 km/h 7.4 km/h 79% 0.0 mm
19:39 19.1 °C 15.5 °C 1019.1 hPa NE 4.7 km/h 8.4 km/h 79.6% 0.0 mm
19:44 19 °C 15.4 °C 1019.1 hPa NE 4.9 km/h 8 km/h 80% 0.0 mm
19:49 18.9 °C 15.5 °C 1019.1 hPa Este 5 km/h 8.4 km/h 80.4% 0.0 mm
19:54 18.9 °C 15.6 °C 1019.1 hPa Este 4.7 km/h 8 km/h 81% 0.0 mm
19:59 18.9 °C 15.6 °C 1019.1 hPa ENE 4.7 km/h 4.8 km/h 81% 0.0 mm
20:04 18.8 °C 15.5 °C 1019.1 hPa ENE 2.8 km/h 5.8 km/h 81% 0.0 mm
20:09 18.8 °C 15.4 °C 1019.2 hPa ENE 2.2 km/h 6.9 km/h 81% 0.0 mm
20:14 18.7 °C 15.4 °C 1019.2 hPa NE 3.4 km/h 8 km/h 81% 0.0 mm
20:19 18.7 °C 15.4 °C 1019.2 hPa NNE 3.9 km/h 8 km/h 81% 0.0 mm
20:24 18.6 °C 15.4 °C 1019.3 hPa NNE 3.4 km/h 4.8 km/h 82% 0.0 mm
20:29 18.4 °C 15.3 °C 1019.3 hPa NNE 3.2 km/h 4.8 km/h 82.1% 0.0 mm
20:34 18.3 °C 15.4 °C 1019.3 hPa NNE 3 km/h 4.8 km/h 83% 0.0 mm
20:39 18.2 °C 15.3 °C 1019.5 hPa NNE 2.9 km/h 3.9 km/h 83% 0.0 mm
20:44 18.2 °C 15.3 °C 1019.5 hPa North 0.8 km/h 5.6 km/h 83.3% 0.0 mm
20:49 18 °C 15.3 °C 1019.5 hPa Calm   5.8 km/h 84% 0.0 mm
20:54 17.9 °C 15.2 °C 1019.5 hPa NNO 2.2 km/h 6.4 km/h 84% 0.0 mm
20:59 17.8 °C 15.2 °C 1019.4 hPa NNO 2.9 km/h 5.6 km/h 84.8% 0.0 mm
21:04 17.8 °C 15.2 °C 1019.4 hPa NNO 0.6 km/h 4.8 km/h 85% 0.0 mm
21:09 17.8 °C 15.2 °C 1019.5 hPa Calm   3.7 km/h 85% 0.0 mm
21:14 17.7 °C 15.2 °C 1019.5 hPa Calm   5.6 km/h 85% 0.0 mm
21:19 17.7 °C 15.2 °C 1019.5 hPa Calm   5.6 km/h 85% 0.0 mm
21:24 17.6 °C 15.2 °C 1019.5 hPa NNO 2.4 km/h 5.6 km/h 85.6% 0.0 mm
21:29 17.6 °C 15.2 °C 1019.5 hPa NNO 3.2 km/h 5.8 km/h 86% 0.0 mm
21:34 17.6 °C 15.2 °C 1019.5 hPa NNO 3 km/h 6.4 km/h 86% 0.0 mm
21:39 17.5 °C 15.1 °C 1019.7 hPa NNO 2.9 km/h 5.6 km/h 86% 0.0 mm
21:44 17.4 °C 15.1 °C 1019.7 hPa NNO 2.9 km/h 4.8 km/h 86% 0.0 mm
21:49 17.3 °C 15 °C 1019.7 hPa NNO 2.9 km/h 4.8 km/h 86% 0.0 mm
21:54 17.3 °C 15 °C 1019.7 hPa NNO 0.7 km/h   86.1% 0.0 mm
21:59 17.2 °C 15 °C 1019.6 hPa Calm     87% 0.0 mm
22:04 17.2 °C 15 °C 1019.6 hPa Calm     87% 0.0 mm
22:09 17.2 °C 15 °C 1019.6 hPa Calm     87% 0.0 mm
22:14 17.2 °C 15.1 °C 1019.6 hPa Calm   4.7 km/h 87.6% 0.0 mm
22:19 17.3 °C 15.2 °C 1019.6 hPa Calm   4.8 km/h 87.5% 0.0 mm
22:24 17.3 °C 15.1 °C 1019.7 hPa Calm   3.2 km/h 87% 0.0 mm
22:29 17.3 °C 15.1 °C 1019.7 hPa Calm   2.3 km/h 87% 0.0 mm
22:34 17.2 °C 15 °C 1019.7 hPa Calm   3.9 km/h 87% 0.0 mm
22:39 17.2 °C 15 °C 1019.7 hPa Calm   5.8 km/h 87% 0.0 mm
22:44 17.2 °C 15 °C 1019.5 hPa NNO 2.2 km/h 6.4 km/h 87% 0.0 mm
22:49 17.1 °C 14.9 °C 1019.5 hPa North 2.9 km/h 7.4 km/h 87% 0.0 mm
22:54 16.9 °C 14.7 °C 1019.5 hPa ENE 3.1 km/h 8 km/h 87% 0.0 mm
22:59 16.8 °C 14.6 °C 1019.4 hPa Este 3.2 km/h 7.4 km/h 87% 0.0 mm
23:04 16.7 °C 14.5 °C 1019.4 hPa ESE 3.2 km/h 8 km/h 87% 0.0 mm
23:09 16.6 °C 14.6 °C 1019.4 hPa ESE 3.2 km/h 4.8 km/h 87.8% 0.0 mm
23:14 16.6 °C 14.6 °C 1019.4 hPa Calm     88% 0.0 mm
23:19 16.5 °C 14.5 °C 1019.4 hPa Calm     88% 0.0 mm
23:24 16.4 °C 14.4 °C 1019.5 hPa Calm   7.4 km/h 88% 0.0 mm
23:29 16.3 °C 14.3 °C 1019.5 hPa Calm   8 km/h 88% 0.0 mm
23:34 16.1 °C 14.2 °C 1019.5 hPa Oeste 3.4 km/h 8 km/h 88.6% 0.0 mm
23:39 15.9 °C 14.1 °C 1019.5 hPa Oeste 4.7 km/h 8 km/h 89% 0.0 mm
23:44 15.9 °C 14.1 °C 1019.4 hPa Oeste 2.9 km/h 3.2 km/h 89.2% 0.0 mm
23:49 15.9 °C 14.3 °C 1019.4 hPa Oeste 2.2 km/h   90% 0.0 mm
23:54 15.9 °C 14.3 °C 1019.4 hPa Oeste 0.6 km/h   90.3% 0.0 mm
23:59 15.9 °C 14.5 °C 1019.3 hPa Calm     91% 0.0 mm
Murcia-Puente Tocinos, España
Compliments of Weather Underground - 3.5 mb

La estación de MeteoMurcia.com, publica sus datos en los siguientes proyectos:

Weather Underground PWS IMURCIAP2 Meteoclimatic www.awekas.at

W3Counter
Web Analytics